sensor_id;sensor_type;location;lat;lon;timestamp;temperature;humidity
19999;DHT22;10160;50.926;4.374;2022-11-15T00:00:53;12.30;99.90
19999;DHT22;10160;50.926;4.374;2022-11-15T00:03:21;12.30;99.90
19999;DHT22;10160;50.926;4.374;2022-11-15T00:05:47;12.40;99.90
19999;DHT22;10160;50.926;4.374;2022-11-15T00:08:12;12.40;99.90
19999;DHT22;10160;50.926;4.374;2022-11-15T00:10:38;12.40;99.90
19999;DHT22;10160;50.926;4.374;2022-11-15T00:13:05;12.50;99.90
19999;DHT22;10160;50.926;4.374;2022-11-15T00:15:31;12.40;99.90
19999;DHT22;10160;50.926;4.374;2022-11-15T00:17:57;12.40;99.90
19999;DHT22;10160;50.926;4.374;2022-11-15T00:20:22;12.50;99.90
19999;DHT22;10160;50.926;4.374;2022-11-15T00:22:48;12.60;99.90
19999;DHT22;10160;50.926;4.374;2022-11-15T00:25:13;12.70;99.90
19999;DHT22;10160;50.926;4.374;2022-11-15T00:27:39;12.70;99.90
19999;DHT22;10160;50.926;4.374;2022-11-15T00:30:05;12.70;99.90
19999;DHT22;10160;50.926;4.374;2022-11-15T00:32:31;12.60;99.90
19999;DHT22;10160;50.926;4.374;2022-11-15T00:34:57;12.60;99.90
19999;DHT22;10160;50.926;4.374;2022-11-15T00:37:23;12.60;99.90
19999;DHT22;10160;50.926;4.374;2022-11-15T00:39:49;12.70;99.90
19999;DHT22;10160;50.926;4.374;2022-11-15T00:42:14;12.80;99.90
19999;DHT22;10160;50.926;4.374;2022-11-15T00:44:40;12.70;99.90
19999;DHT22;10160;50.926;4.374;2022-11-15T00:47:05;12.80;99.90
19999;DHT22;10160;50.926;4.374;2022-11-15T00:49:31;12.80;99.90
19999;DHT22;10160;50.926;4.374;2022-11-15T00:51:57;12.90;99.90
19999;DHT22;10160;50.926;4.374;2022-11-15T00:54:22;12.90;99.90
19999;DHT22;10160;50.926;4.374;2022-11-15T00:56:48;12.80;99.90
19999;DHT22;10160;50.926;4.374;2022-11-15T00:59:13;12.70;99.90
19999;DHT22;10160;50.926;4.374;2022-11-15T01:01:39;12.80;99.90
19999;DHT22;10160;50.926;4.374;2022-11-15T01:04:05;12.80;99.90
19999;DHT22;10160;50.926;4.374;2022-11-15T01:06:31;12.80;99.90
19999;DHT22;10160;50.926;4.374;2022-11-15T01:08:56;12.70;99.90
19999;DHT22;10160;50.926;4.374;2022-11-15T01:11:22;12.80;99.90
19999;DHT22;10160;50.926;4.374;2022-11-15T01:13:48;12.80;99.90
19999;DHT22;10160;50.926;4.374;2022-11-15T01:16:16;12.90;99.90
19999;DHT22;10160;50.926;4.374;2022-11-15T01:18:43;12.70;99.90
19999;DHT22;10160;50.926;4.374;2022-11-15T01:21:10;12.80;99.90
19999;DHT22;10160;50.926;4.374;2022-11-15T01:23:37;12.80;99.90
19999;DHT22;10160;50.926;4.374;2022-11-15T01:26:05;12.90;99.90
19999;DHT22;10160;50.926;4.374;2022-11-15T01:28:33;12.80;99.90
19999;DHT22;10160;50.926;4.374;2022-11-15T01:31:00;12.90;99.90
19999;DHT22;10160;50.926;4.374;2022-11-15T01:33:27;12.90;99.90
19999;DHT22;10160;50.926;4.374;2022-11-15T01:35:53;12.90;99.90
19999;DHT22;10160;50.926;4.374;2022-11-15T01:38:19;12.80;99.90
19999;DHT22;10160;50.926;4.374;2022-11-15T01:40:45;12.90;99.90
19999;DHT22;10160;50.926;4.374;2022-11-15T01:43:24;12.80;99.90
19999;DHT22;10160;50.926;4.374;2022-11-15T01:46:09;12.80;99.90
19999;DHT22;10160;50.926;4.374;2022-11-15T01:48:39;13.00;99.90
19999;DHT22;10160;50.926;4.374;2022-11-15T01:51:08;12.80;99.90
19999;DHT22;10160;50.926;4.374;2022-11-15T01:53:36;12.90;99.90
19999;DHT22;10160;50.926;4.374;2022-11-15T01:56:06;12.90;99.90
19999;DHT22;10160;50.926;4.374;2022-11-15T01:58:34;12.80;99.90
19999;DHT22;10160;50.926;4.374;2022-11-15T02:01:01;12.90;99.90
19999;DHT22;10160;50.926;4.374;2022-11-15T02:03:52;13.00;99.90
19999;DHT22;10160;50.926;4.374;2022-11-15T02:06:21;12.90;99.90
19999;DHT22;10160;50.926;4.374;2022-11-15T02:08:47;12.80;99.90
19999;DHT22;10160;50.926;4.374;2022-11-15T02:11:13;12.70;99.90
19999;DHT22;10160;50.926;4.374;2022-11-15T02:13:39;12.70;99.90
19999;DHT22;10160;50.926;4.374;2022-11-15T02:21:48;12.70;99.90
19999;DHT22;10160;50.926;4.374;2022-11-15T02:29:36;12.60;99.90
19999;DHT22;10160;50.926;4.374;2022-11-15T02:37:52;12.60;99.90
19999;DHT22;10160;50.926;4.374;2022-11-15T02:40:34;12.70;99.90
19999;DHT22;10160;50.926;4.374;2022-11-15T02:43:11;12.60;99.90
19999;DHT22;10160;50.926;4.374;2022-11-15T02:49:17;12.60;99.90
19999;DHT22;10160;50.926;4.374;2022-11-15T02:51:45;12.60;99.90
19999;DHT22;10160;50.926;4.374;2022-11-15T02:54:15;12.60;99.90
19999;DHT22;10160;50.926;4.374;2022-11-15T02:56:44;12.60;99.90
19999;DHT22;10160;50.926;4.374;2022-11-15T02:59:27;12.70;99.90
19999;DHT22;10160;50.926;4.374;2022-11-15T03:02:18;12.70;99.90
19999;DHT22;10160;50.926;4.374;2022-11-15T03:07:29;12.70;99.90
19999;DHT22;10160;50.926;4.374;2022-11-15T03:10:09;12.60;99.90
19999;DHT22;10160;50.926;4.374;2022-11-15T03:12:54;12.60;99.90
19999;DHT22;10160;50.926;4.374;2022-11-15T03:15:33;12.60;99.90
19999;DHT22;10160;50.926;4.374;2022-11-15T03:18:05;12.60;99.90
19999;DHT22;10160;50.926;4.374;2022-11-15T03:20:34;12.50;99.90
19999;DHT22;10160;50.926;4.374;2022-11-15T03:23:10;12.70;99.90
19999;DHT22;10160;50.926;4.374;2022-11-15T03:25:40;12.70;99.90
19999;DHT22;10160;50.926;4.374;2022-11-15T03:28:11;12.70;99.90
19999;DHT22;10160;50.926;4.374;2022-11-15T03:30:39;12.60;99.90
19999;DHT22;10160;50.926;4.374;2022-11-15T03:33:05;12.70;99.90
19999;DHT22;10160;50.926;4.374;2022-11-15T03:35:35;12.70;99.90
19999;DHT22;10160;50.926;4.374;2022-11-15T03:40:45;12.50;99.90
19999;DHT22;10160;50.926;4.374;2022-11-15T03:45:51;12.50;99.90
19999;DHT22;10160;50.926;4.374;2022-11-15T03:48:25;12.50;99.90
19999;DHT22;10160;50.926;4.374;2022-11-15T03:50:52;12.50;99.90
19999;DHT22;10160;50.926;4.374;2022-11-15T03:53:17;12.60;99.90
19999;DHT22;10160;50.926;4.374;2022-11-15T03:55:43;12.60;99.90
19999;DHT22;10160;50.926;4.374;2022-11-15T03:58:09;12.60;99.90
19999;DHT22;10160;50.926;4.374;2022-11-15T04:00:34;12.60;99.90
19999;DHT22;10160;50.926;4.374;2022-11-15T04:03:00;12.50;99.90
19999;DHT22;10160;50.926;4.374;2022-11-15T04:05:26;12.40;99.90
19999;DHT22;10160;50.926;4.374;2022-11-15T04:07:51;12.50;99.90
19999;DHT22;10160;50.926;4.374;2022-11-15T04:10:17;12.50;99.90
19999;DHT22;10160;50.926;4.374;2022-11-15T04:12:45;12.40;99.90
19999;DHT22;10160;50.926;4.374;2022-11-15T04:15:15;12.40;99.90
19999;DHT22;10160;50.926;4.374;2022-11-15T04:20:30;12.30;99.90
19999;DHT22;10160;50.926;4.374;2022-11-15T04:23:17;12.20;99.90
19999;DHT22;10160;50.926;4.374;2022-11-15T04:26:04;12.10;99.90
19999;DHT22;10160;50.926;4.374;2022-11-15T04:28:30;12.10;99.90
19999;DHT22;10160;50.926;4.374;2022-11-15T04:30:56;12.10;99.90
19999;DHT22;10160;50.926;4.374;2022-11-15T04:33:22;12.20;99.90
19999;DHT22;10160;50.926;4.374;2022-11-15T04:35:48;12.30;99.90
19999;DHT22;10160;50.926;4.374;2022-11-15T04:38:34;12.30;99.90
19999;DHT22;10160;50.926;4.374;2022-11-15T04:41:00;12.20;99.90
19999;DHT22;10160;50.926;4.374;2022-11-15T04:43:26;12.20;99.90
19999;DHT22;10160;50.926;4.374;2022-11-15T04:45:51;12.10;99.90
19999;DHT22;10160;50.926;4.374;2022-11-15T04:48:17;12.10;99.90
19999;DHT22;10160;50.926;4.374;2022-11-15T04:50:42;12.00;99.90
19999;DHT22;10160;50.926;4.374;2022-11-15T04:53:08;12.00;99.90
19999;DHT22;10160;50.926;4.374;2022-11-15T04:55:34;12.00;99.90
19999;DHT22;10160;50.926;4.374;2022-11-15T04:58:00;12.00;99.90
19999;DHT22;10160;50.926;4.374;2022-11-15T05:00:28;11.90;99.90
19999;DHT22;10160;50.926;4.374;2022-11-15T05:02:54;11.90;99.90
19999;DHT22;10160;50.926;4.374;2022-11-15T05:05:38;11.80;99.90
19999;DHT22;10160;50.926;4.374;2022-11-15T05:08:04;11.80;99.90
19999;DHT22;10160;50.926;4.374;2022-11-15T05:10:30;11.80;99.90
19999;DHT22;10160;50.926;4.374;2022-11-15T05:12:56;11.80;99.90
19999;DHT22;10160;50.926;4.374;2022-11-15T05:15:21;11.70;99.90
19999;DHT22;10160;50.926;4.374;2022-11-15T05:17:47;11.70;99.90
19999;DHT22;10160;50.926;4.374;2022-11-15T05:20:13;11.50;99.90
19999;DHT22;10160;50.926;4.374;2022-11-15T05:22:39;11.70;99.90
19999;DHT22;10160;50.926;4.374;2022-11-15T05:25:05;11.60;99.90
19999;DHT22;10160;50.926;4.374;2022-11-15T05:27:32;11.60;99.90
19999;DHT22;10160;50.926;4.374;2022-11-15T05:29:57;11.70;99.90
19999;DHT22;10160;50.926;4.374;2022-11-15T05:32:23;11.50;99.90
19999;DHT22;10160;50.926;4.374;2022-11-15T05:34:49;11.50;99.90
19999;DHT22;10160;50.926;4.374;2022-11-15T05:37:16;11.40;99.90
19999;DHT22;10160;50.926;4.374;2022-11-15T05:39:42;11.30;99.90
19999;DHT22;10160;50.926;4.374;2022-11-15T05:42:13;11.40;99.90
19999;DHT22;10160;50.926;4.374;2022-11-15T05:44:41;11.40;99.90
19999;DHT22;10160;50.926;4.374;2022-11-15T05:47:11;11.50;99.90
19999;DHT22;10160;50.926;4.374;2022-11-15T05:49:40;11.50;99.90
19999;DHT22;10160;50.926;4.374;2022-11-15T05:52:08;11.40;99.90
19999;DHT22;10160;50.926;4.374;2022-11-15T05:54:36;11.30;99.90
19999;DHT22;10160;50.926;4.374;2022-11-15T05:57:03;11.30;99.90
19999;DHT22;10160;50.926;4.374;2022-11-15T05:59:30;11.30;99.90
19999;DHT22;10160;50.926;4.374;2022-11-15T06:01:56;11.20;99.90
19999;DHT22;10160;50.926;4.374;2022-11-15T06:04:21;11.20;99.90
19999;DHT22;10160;50.926;4.374;2022-11-15T06:06:47;11.20;99.90
19999;DHT22;10160;50.926;4.374;2022-11-15T06:09:13;11.20;99.90
19999;DHT22;10160;50.926;4.374;2022-11-15T06:11:38;11.40;99.90
19999;DHT22;10160;50.926;4.374;2022-11-15T06:14:04;11.20;99.90
19999;DHT22;10160;50.926;4.374;2022-11-15T06:16:30;11.20;99.90
19999;DHT22;10160;50.926;4.374;2022-11-15T06:18:55;11.10;99.90
19999;DHT22;10160;50.926;4.374;2022-11-15T06:21:21;11.00;99.90
19999;DHT22;10160;50.926;4.374;2022-11-15T06:23:47;11.00;99.90
19999;DHT22;10160;50.926;4.374;2022-11-15T06:26:12;11.00;99.90
19999;DHT22;10160;50.926;4.374;2022-11-15T06:28:38;10.90;99.90
19999;DHT22;10160;50.926;4.374;2022-11-15T06:31:13;10.90;99.90
19999;DHT22;10160;50.926;4.374;2022-11-15T06:33:39;11.00;99.90
19999;DHT22;10160;50.926;4.374;2022-11-15T06:36:08;11.10;99.90
19999;DHT22;10160;50.926;4.374;2022-11-15T06:38:34;11.10;99.90
19999;DHT22;10160;50.926;4.374;2022-11-15T06:41:04;11.10;99.90
19999;DHT22;10160;50.926;4.374;2022-11-15T06:43:30;11.00;99.90
19999;DHT22;10160;50.926;4.374;2022-11-15T06:45:58;11.00;99.90
19999;DHT22;10160;50.926;4.374;2022-11-15T06:48:24;10.90;99.90
19999;DHT22;10160;50.926;4.374;2022-11-15T06:50:53;10.90;99.90
19999;DHT22;10160;50.926;4.374;2022-11-15T06:53:19;10.80;99.90
19999;DHT22;10160;50.926;4.374;2022-11-15T06:55:45;10.80;99.90
19999;DHT22;10160;50.926;4.374;2022-11-15T06:58:10;10.60;99.90
19999;DHT22;10160;50.926;4.374;2022-11-15T07:00:36;10.60;99.90
19999;DHT22;10160;50.926;4.374;2022-11-15T07:03:02;10.70;99.90
19999;DHT22;10160;50.926;4.374;2022-11-15T07:05:28;10.70;99.90
19999;DHT22;10160;50.926;4.374;2022-11-15T07:07:55;10.70;99.90
19999;DHT22;10160;50.926;4.374;2022-11-15T07:10:23;10.80;99.90
19999;DHT22;10160;50.926;4.374;2022-11-15T07:12:50;10.90;99.90
19999;DHT22;10160;50.926;4.374;2022-11-15T07:15:17;10.90;99.90
19999;DHT22;10160;50.926;4.374;2022-11-15T07:17:43;10.90;99.90
19999;DHT22;10160;50.926;4.374;2022-11-15T07:20:09;10.90;99.90
19999;DHT22;10160;50.926;4.374;2022-11-15T07:22:35;10.90;99.90
19999;DHT22;10160;50.926;4.374;2022-11-15T07:25:01;10.80;99.90
19999;DHT22;10160;50.926;4.374;2022-11-15T07:27:27;10.80;99.90
19999;DHT22;10160;50.926;4.374;2022-11-15T07:29:54;10.70;99.90
19999;DHT22;10160;50.926;4.374;2022-11-15T07:32:19;10.70;99.90
19999;DHT22;10160;50.926;4.374;2022-11-15T07:34:45;10.60;99.90
19999;DHT22;10160;50.926;4.374;2022-11-15T07:37:12;10.70;99.90
19999;DHT22;10160;50.926;4.374;2022-11-15T07:39:37;10.70;99.90
19999;DHT22;10160;50.926;4.374;2022-11-15T07:42:03;10.80;99.90
19999;DHT22;10160;50.926;4.374;2022-11-15T07:44:48;10.80;99.90
19999;DHT22;10160;50.926;4.374;2022-11-15T07:47:13;10.80;99.90
19999;DHT22;10160;50.926;4.374;2022-11-15T07:49:39;10.90;99.90
19999;DHT22;10160;50.926;4.374;2022-11-15T07:52:05;10.80;99.90
19999;DHT22;10160;50.926;4.374;2022-11-15T07:54:30;10.80;99.90
19999;DHT22;10160;50.926;4.374;2022-11-15T07:56:56;10.90;99.90
19999;DHT22;10160;50.926;4.374;2022-11-15T07:59:21;11.00;99.90
19999;DHT22;10160;50.926;4.374;2022-11-15T08:01:47;11.00;99.90
19999;DHT22;10160;50.926;4.374;2022-11-15T08:04:13;10.90;99.90
19999;DHT22;10160;50.926;4.374;2022-11-15T08:06:38;10.80;99.90
19999;DHT22;10160;50.926;4.374;2022-11-15T08:09:04;10.90;99.90
19999;DHT22;10160;50.926;4.374;2022-11-15T08:11:30;11.00;99.90
19999;DHT22;10160;50.926;4.374;2022-11-15T08:13:56;11.00;99.90
19999;DHT22;10160;50.926;4.374;2022-11-15T08:16:21;10.90;99.90
19999;DHT22;10160;50.926;4.374;2022-11-15T08:18:47;10.90;99.90
19999;DHT22;10160;50.926;4.374;2022-11-15T08:21:19;10.90;99.90
19999;DHT22;10160;50.926;4.374;2022-11-15T08:23:45;11.10;99.90
19999;DHT22;10160;50.926;4.374;2022-11-15T08:26:10;11.00;99.90
19999;DHT22;10160;50.926;4.374;2022-11-15T08:28:37;11.00;99.90
19999;DHT22;10160;50.926;4.374;2022-11-15T08:31:03;11.10;99.90
19999;DHT22;10160;50.926;4.374;2022-11-15T08:33:30;11.10;99.90
19999;DHT22;10160;50.926;4.374;2022-11-15T08:35:57;11.20;99.90
19999;DHT22;10160;50.926;4.374;2022-11-15T08:38:23;11.30;99.90
19999;DHT22;10160;50.926;4.374;2022-11-15T08:40:51;11.30;99.90
19999;DHT22;10160;50.926;4.374;2022-11-15T08:43:17;11.40;99.90
19999;DHT22;10160;50.926;4.374;2022-11-15T08:45:43;11.30;99.90
19999;DHT22;10160;50.926;4.374;2022-11-15T08:48:09;11.30;99.90
19999;DHT22;10160;50.926;4.374;2022-11-15T08:50:34;11.20;99.90
19999;DHT22;10160;50.926;4.374;2022-11-15T08:53:07;11.30;99.90
19999;DHT22;10160;50.926;4.374;2022-11-15T08:55:36;11.30;99.90
19999;DHT22;10160;50.926;4.374;2022-11-15T08:58:03;11.30;99.90
19999;DHT22;10160;50.926;4.374;2022-11-15T09:00:29;11.30;99.90
19999;DHT22;10160;50.926;4.374;2022-11-15T09:02:55;11.40;99.90
19999;DHT22;10160;50.926;4.374;2022-11-15T09:05:20;11.50;99.90
19999;DHT22;10160;50.926;4.374;2022-11-15T09:07:46;11.60;99.90
19999;DHT22;10160;50.926;4.374;2022-11-15T09:10:12;11.60;99.90
19999;DHT22;10160;50.926;4.374;2022-11-15T09:12:37;11.80;99.90
19999;DHT22;10160;50.926;4.374;2022-11-15T09:15:05;11.50;99.90
19999;DHT22;10160;50.926;4.374;2022-11-15T09:17:30;11.60;99.90
19999;DHT22;10160;50.926;4.374;2022-11-15T09:19:56;11.50;99.90
19999;DHT22;10160;50.926;4.374;2022-11-15T09:22:22;11.60;99.90
19999;DHT22;10160;50.926;4.374;2022-11-15T09:24:47;11.60;99.90
19999;DHT22;10160;50.926;4.374;2022-11-15T09:27:13;11.80;99.90
19999;DHT22;10160;50.926;4.374;2022-11-15T09:29:39;11.80;99.90
19999;DHT22;10160;50.926;4.374;2022-11-15T09:32:05;11.80;99.90
19999;DHT22;10160;50.926;4.374;2022-11-15T09:34:30;11.90;99.90
19999;DHT22;10160;50.926;4.374;2022-11-15T09:36:56;12.10;99.90
19999;DHT22;10160;50.926;4.374;2022-11-15T09:39:21;12.20;99.90
19999;DHT22;10160;50.926;4.374;2022-11-15T09:50:00;13.00;99.90
19999;DHT22;10160;50.926;4.374;2022-11-15T09:52:27;12.90;99.90
19999;DHT22;10160;50.926;4.374;2022-11-15T09:54:53;12.90;99.90
19999;DHT22;10160;50.926;4.374;2022-11-15T09:57:37;12.90;99.90
19999;DHT22;10160;50.926;4.374;2022-11-15T10:05:38;13.50;99.90
19999;DHT22;10160;50.926;4.374;2022-11-15T10:11:05;14.30;99.90
19999;DHT22;10160;50.926;4.374;2022-11-15T10:13:35;15.20;99.90
19999;DHT22;10160;50.926;4.374;2022-11-15T10:19:00;15.40;99.90
19999;DHT22;10160;50.926;4.374;2022-11-15T10:21:51;15.60;99.90
19999;DHT22;10160;50.926;4.374;2022-11-15T10:24:26;15.90;99.90
19999;DHT22;10160;50.926;4.374;2022-11-15T10:26:55;15.90;99.90
19999;DHT22;10160;50.926;4.374;2022-11-15T10:29:22;16.30;99.90
19999;DHT22;10160;50.926;4.374;2022-11-15T10:31:48;16.30;99.90
19999;DHT22;10160;50.926;4.374;2022-11-15T10:34:22;16.10;99.90
19999;DHT22;10160;50.926;4.374;2022-11-15T10:36:59;16.20;99.90
19999;DHT22;10160;50.926;4.374;2022-11-15T10:39:26;17.10;99.90
19999;DHT22;10160;50.926;4.374;2022-11-15T10:41:52;17.90;99.90
19999;DHT22;10160;50.926;4.374;2022-11-15T10:44:22;17.70;99.90
19999;DHT22;10160;50.926;4.374;2022-11-15T10:49:25;16.70;99.90
19999;DHT22;10160;50.926;4.374;2022-11-15T10:51:58;16.20;99.90
19999;DHT22;10160;50.926;4.374;2022-11-15T10:54:37;15.70;99.90
19999;DHT22;10160;50.926;4.374;2022-11-15T10:57:13;15.20;99.90
19999;DHT22;10160;50.926;4.374;2022-11-15T10:59:44;14.80;99.90
19999;DHT22;10160;50.926;4.374;2022-11-15T11:02:34;14.60;99.90
19999;DHT22;10160;50.926;4.374;2022-11-15T11:05:00;14.20;99.90
19999;DHT22;10160;50.926;4.374;2022-11-15T11:07:32;14.00;99.90
19999;DHT22;10160;50.926;4.374;2022-11-15T11:10:19;13.70;99.90
19999;DHT22;10160;50.926;4.374;2022-11-15T11:12:45;13.50;99.90
19999;DHT22;10160;50.926;4.374;2022-11-15T11:15:15;13.70;99.90
19999;DHT22;10160;50.926;4.374;2022-11-15T11:29:07;14.60;99.90
19999;DHT22;10160;50.926;4.374;2022-11-15T11:43:03;16.30;99.90
19999;DHT22;10160;50.926;4.374;2022-11-15T11:48:57;15.30;99.90
19999;DHT22;10160;50.926;4.374;2022-11-15T11:51:32;14.80;99.90
19999;DHT22;10160;50.926;4.374;2022-11-15T11:54:06;14.50;99.90
19999;DHT22;10160;50.926;4.374;2022-11-15T11:56:39;14.30;99.90
19999;DHT22;10160;50.926;4.374;2022-11-15T11:59:27;14.40;99.90
19999;DHT22;10160;50.926;4.374;2022-11-15T12:01:54;14.20;99.90
19999;DHT22;10160;50.926;4.374;2022-11-15T12:04:28;14.00;99.90
19999;DHT22;10160;50.926;4.374;2022-11-15T12:07:34;13.80;99.90
19999;DHT22;10160;50.926;4.374;2022-11-15T12:12:35;13.70;99.90
19999;DHT22;10160;50.926;4.374;2022-11-15T12:15:04;13.80;99.90
19999;DHT22;10160;50.926;4.374;2022-11-15T12:17:36;13.90;99.90
19999;DHT22;10160;50.926;4.374;2022-11-15T12:20:19;13.80;99.90
19999;DHT22;10160;50.926;4.374;2022-11-15T12:23:13;13.80;99.90
19999;DHT22;10160;50.926;4.374;2022-11-15T12:26:09;13.80;99.90
19999;DHT22;10160;50.926;4.374;2022-11-15T12:28:53;13.90;99.90
19999;DHT22;10160;50.926;4.374;2022-11-15T12:31:31;14.00;99.90
19999;DHT22;10160;50.926;4.374;2022-11-15T12:34:04;14.00;99.90
19999;DHT22;10160;50.926;4.374;2022-11-15T12:36:41;13.80;99.90
19999;DHT22;10160;50.926;4.374;2022-11-15T12:39:09;13.70;99.90
19999;DHT22;10160;50.926;4.374;2022-11-15T13:02:22;14.20;99.90
19999;DHT22;10160;50.926;4.374;2022-11-15T13:04:51;14.30;99.90
19999;DHT22;10160;50.926;4.374;2022-11-15T13:17:45;14.30;99.90
19999;DHT22;10160;50.926;4.374;2022-11-15T13:23:07;14.20;99.90
19999;DHT22;10160;50.926;4.374;2022-11-15T13:30:56;14.10;99.90
19999;DHT22;10160;50.926;4.374;2022-11-15T13:33:36;14.10;99.90
19999;DHT22;10160;50.926;4.374;2022-11-15T13:36:32;14.10;99.90
19999;DHT22;10160;50.926;4.374;2022-11-15T13:41:50;14.10;99.90
19999;DHT22;10160;50.926;4.374;2022-11-15T13:44:34;14.00;99.90
19999;DHT22;10160;50.926;4.374;2022-11-15T13:47:14;14.00;99.90
19999;DHT22;10160;50.926;4.374;2022-11-15T13:49:40;14.00;99.90
19999;DHT22;10160;50.926;4.374;2022-11-15T13:52:08;14.10;99.90
19999;DHT22;10160;50.926;4.374;2022-11-15T13:54:44;14.20;99.90
19999;DHT22;10160;50.926;4.374;2022-11-15T13:57:23;14.20;99.90
19999;DHT22;10160;50.926;4.374;2022-11-15T13:59:51;14.30;99.90
19999;DHT22;10160;50.926;4.374;2022-11-15T14:02:20;14.30;99.90
19999;DHT22;10160;50.926;4.374;2022-11-15T14:04:55;14.40;99.90
19999;DHT22;10160;50.926;4.374;2022-11-15T14:07:23;14.30;99.90
19999;DHT22;10160;50.926;4.374;2022-11-15T14:09:49;14.30;99.90
19999;DHT22;10160;50.926;4.374;2022-11-15T14:12:26;14.20;99.90
19999;DHT22;10160;50.926;4.374;2022-11-15T14:14:52;14.30;99.90
19999;DHT22;10160;50.926;4.374;2022-11-15T14:17:38;14.10;99.90
19999;DHT22;10160;50.926;4.374;2022-11-15T14:20:32;14.20;99.90
19999;DHT22;10160;50.926;4.374;2022-11-15T14:23:03;14.10;99.90
19999;DHT22;10160;50.926;4.374;2022-11-15T14:25:31;14.10;99.90
19999;DHT22;10160;50.926;4.374;2022-11-15T14:28:16;14.00;99.90
19999;DHT22;10160;50.926;4.374;2022-11-15T14:30:44;14.00;99.90
19999;DHT22;10160;50.926;4.374;2022-11-15T14:33:33;13.90;99.90
19999;DHT22;10160;50.926;4.374;2022-11-15T14:36:06;13.90;99.90
19999;DHT22;10160;50.926;4.374;2022-11-15T14:38:32;13.90;99.90
19999;DHT22;10160;50.926;4.374;2022-11-15T14:40:57;13.90;99.90
19999;DHT22;10160;50.926;4.374;2022-11-15T14:43:23;13.90;99.90
19999;DHT22;10160;50.926;4.374;2022-11-15T14:45:49;14.00;99.90
19999;DHT22;10160;50.926;4.374;2022-11-15T14:48:15;13.90;99.90
19999;DHT22;10160;50.926;4.374;2022-11-15T14:50:40;13.90;99.90
19999;DHT22;10160;50.926;4.374;2022-11-15T14:53:06;13.90;99.90
19999;DHT22;10160;50.926;4.374;2022-11-15T14:55:34;13.90;99.90
19999;DHT22;10160;50.926;4.374;2022-11-15T14:58:06;13.90;99.90
19999;DHT22;10160;50.926;4.374;2022-11-15T15:00:39;13.70;99.90
19999;DHT22;10160;50.926;4.374;2022-11-15T15:03:06;13.70;99.90
19999;DHT22;10160;50.926;4.374;2022-11-15T15:05:38;13.70;99.90
19999;DHT22;10160;50.926;4.374;2022-11-15T15:08:04;13.60;99.90
19999;DHT22;10160;50.926;4.374;2022-11-15T15:10:42;13.40;99.90
19999;DHT22;10160;50.926;4.374;2022-11-15T15:13:20;13.40;99.90
19999;DHT22;10160;50.926;4.374;2022-11-15T15:15:47;13.30;99.90
19999;DHT22;10160;50.926;4.374;2022-11-15T15:18:13;13.30;99.90
19999;DHT22;10160;50.926;4.374;2022-11-15T15:20:40;13.30;99.90
19999;DHT22;10160;50.926;4.374;2022-11-15T15:23:17;13.30;99.90
19999;DHT22;10160;50.926;4.374;2022-11-15T15:25:45;13.30;99.90
19999;DHT22;10160;50.926;4.374;2022-11-15T15:28:12;13.30;99.90
19999;DHT22;10160;50.926;4.374;2022-11-15T15:30:38;13.20;99.90
19999;DHT22;10160;50.926;4.374;2022-11-15T15:33:03;13.20;99.90
19999;DHT22;10160;50.926;4.374;2022-11-15T15:35:31;13.20;99.90
19999;DHT22;10160;50.926;4.374;2022-11-15T15:37:57;13.10;99.90
19999;DHT22;10160;50.926;4.374;2022-11-15T15:40:25;13.10;99.90
19999;DHT22;10160;50.926;4.374;2022-11-15T15:42:51;13.20;99.90
19999;DHT22;10160;50.926;4.374;2022-11-15T15:45:18;13.20;99.90
19999;DHT22;10160;50.926;4.374;2022-11-15T15:47:44;13.30;99.90
19999;DHT22;10160;50.926;4.374;2022-11-15T15:50:29;13.30;99.90
19999;DHT22;10160;50.926;4.374;2022-11-15T15:52:57;13.20;99.90
19999;DHT22;10160;50.926;4.374;2022-11-15T15:55:23;13.10;99.90
19999;DHT22;10160;50.926;4.374;2022-11-15T15:57:49;13.20;99.90
19999;DHT22;10160;50.926;4.374;2022-11-15T16:00:16;13.30;99.90
19999;DHT22;10160;50.926;4.374;2022-11-15T16:02:42;13.20;99.90
19999;DHT22;10160;50.926;4.374;2022-11-15T16:05:08;13.20;99.90
19999;DHT22;10160;50.926;4.374;2022-11-15T16:07:34;13.10;99.90
19999;DHT22;10160;50.926;4.374;2022-11-15T16:10:00;13.10;99.90
19999;DHT22;10160;50.926;4.374;2022-11-15T16:12:27;13.10;99.90
19999;DHT22;10160;50.926;4.374;2022-11-15T16:14:53;13.00;99.90
19999;DHT22;10160;50.926;4.374;2022-11-15T16:17:20;13.10;99.90
19999;DHT22;10160;50.926;4.374;2022-11-15T16:19:46;13.20;99.90
19999;DHT22;10160;50.926;4.374;2022-11-15T16:22:12;13.20;99.90
19999;DHT22;10160;50.926;4.374;2022-11-15T16:24:37;13.20;99.90
19999;DHT22;10160;50.926;4.374;2022-11-15T16:27:03;13.10;99.90
19999;DHT22;10160;50.926;4.374;2022-11-15T16:29:30;13.10;99.90
19999;DHT22;10160;50.926;4.374;2022-11-15T16:31:56;13.10;99.90
19999;DHT22;10160;50.926;4.374;2022-11-15T16:34:22;13.00;99.90
19999;DHT22;10160;50.926;4.374;2022-11-15T16:36:47;13.00;99.90
19999;DHT22;10160;50.926;4.374;2022-11-15T16:39:13;13.00;99.90
19999;DHT22;10160;50.926;4.374;2022-11-15T16:41:42;13.00;99.90
19999;DHT22;10160;50.926;4.374;2022-11-15T16:44:14;13.00;99.90
19999;DHT22;10160;50.926;4.374;2022-11-15T16:46:43;12.90;99.90
19999;DHT22;10160;50.926;4.374;2022-11-15T16:49:15;13.00;99.90
19999;DHT22;10160;50.926;4.374;2022-11-15T16:51:41;13.00;99.90
19999;DHT22;10160;50.926;4.374;2022-11-15T16:54:09;13.10;99.90
19999;DHT22;10160;50.926;4.374;2022-11-15T16:56:34;13.10;99.90
19999;DHT22;10160;50.926;4.374;2022-11-15T16:59:01;13.10;99.90
19999;DHT22;10160;50.926;4.374;2022-11-15T17:01:29;13.10;99.90
19999;DHT22;10160;50.926;4.374;2022-11-15T17:03:58;13.00;99.90
19999;DHT22;10160;50.926;4.374;2022-11-15T17:06:25;13.10;99.90
19999;DHT22;10160;50.926;4.374;2022-11-15T17:08:51;13.10;99.90
19999;DHT22;10160;50.926;4.374;2022-11-15T17:11:19;13.30;99.90
19999;DHT22;10160;50.926;4.374;2022-11-15T17:13:45;13.30;99.90
19999;DHT22;10160;50.926;4.374;2022-11-15T17:16:12;13.30;99.90
19999;DHT22;10160;50.926;4.374;2022-11-15T17:18:39;13.20;99.90
19999;DHT22;10160;50.926;4.374;2022-11-15T17:21:08;13.10;99.90
19999;DHT22;10160;50.926;4.374;2022-11-15T17:23:34;13.10;99.90
19999;DHT22;10160;50.926;4.374;2022-11-15T17:26:01;13.10;99.90
19999;DHT22;10160;50.926;4.374;2022-11-15T17:28:29;13.20;99.90
19999;DHT22;10160;50.926;4.374;2022-11-15T17:30:54;13.20;99.90
19999;DHT22;10160;50.926;4.374;2022-11-15T17:33:20;13.20;99.90
19999;DHT22;10160;50.926;4.374;2022-11-15T17:35:45;13.10;99.90
19999;DHT22;10160;50.926;4.374;2022-11-15T17:38:11;13.00;99.90
19999;DHT22;10160;50.926;4.374;2022-11-15T17:40:38;12.90;99.90
19999;DHT22;10160;50.926;4.374;2022-11-15T17:43:05;13.00;99.90
19999;DHT22;10160;50.926;4.374;2022-11-15T17:45:30;13.00;99.90